Time;durP1;ratioP1;P1;durP2;ratioP2;P2;SDS_P1;SDS_P2;PMS_P1;PMS_P2;Temp;Humidity;BMP_temperature;BMP_pressure;BME280_temperature;BME280_humidity;BME280_pressure;Samples;Min_cycle;Max_cycle;Signal;HPM_P1;HPM_P2
2021/08/31 00:00:29;;;;;;;12.95;11.85;;;17.10;95.70;;;;;;4985126;28;20203;-88
2021/08/31 00:02:55;;;;;;;13.85;12.65;;;17.00;96.20;;;;;;4997919;28;20204;-89
2021/08/31 00:05:21;;;;;;;12.85;11.77;;;17.10;95.60;;;;;;4995308;28;20241;-88
2021/08/31 00:07:47;;;;;;;14.82;13.35;;;17.20;95.00;;;;;;4992417;28;20348;-88
2021/08/31 00:10:13;;;;;;;13.30;11.80;;;17.10;95.30;;;;;;4998778;28;20194;-88
2021/08/31 00:12:40;;;;;;;13.38;12.07;;;17.10;95.40;;;;;;4991494;28;20313;-90
2021/08/31 00:15:07;;;;;;;13.68;12.30;;;16.90;96.40;;;;;;4983843;28;20233;-89
2021/08/31 00:17:32;;;;;;;13.93;12.82;;;16.90;96.10;;;;;;4998999;28;20737;-89
2021/08/31 00:19:58;;;;;;;12.85;11.65;;;16.90;96.40;;;;;;4978948;28;20199;-88
2021/08/31 00:22:24;;;;;;;11.95;10.95;;;17.00;95.80;;;;;;4999809;28;20243;-88
2021/08/31 00:24:50;;;;;;;13.02;11.93;;;17.10;95.40;;;;;;4995727;28;20269;-89
2021/08/31 00:27:16;;;;;;;13.65;12.15;;;17.00;95.10;;;;;;4990568;28;20186;-89
2021/08/31 00:29:41;;;;;;;16.25;13.18;;;17.10;95.30;;;;;;4991107;28;20588;-89
2021/08/31 00:32:08;;;;;;;12.73;11.52;;;17.00;95.80;;;;;;4997194;28;20229;-89
2021/08/31 00:34:33;;;;;;;13.57;12.25;;;17.00;95.70;;;;;;4989745;28;20226;-89
2021/08/31 00:36:59;;;;;;;12.60;11.30;;;17.00;95.70;;;;;;4998149;28;20189;-89
2021/08/31 00:39:25;;;;;;;12.48;11.45;;;17.10;95.70;;;;;;5002593;28;20301;-91
2021/08/31 00:41:50;;;;;;;13.00;11.75;;;17.00;95.70;;;;;;5001400;28;20208;-88
2021/08/31 00:44:25;;;;;;;15.35;13.85;;;17.10;95.80;;;;;;4993343;28;20218;-89
2021/08/31 00:47:09;;;;;;;13.38;12.18;;;17.00;96.10;;;;;;5014371;28;20197;-89
2021/08/31 00:49:36;;;;;;;14.02;12.73;;;17.00;95.90;;;;;;4990207;28;20270;-90
2021/08/31 00:52:02;;;;;;;12.48;11.38;;;17.00;96.00;;;;;;5005175;28;20189;-88
2021/08/31 00:54:29;;;;;;;12.07;10.98;;;17.00;95.70;;;;;;5004515;28;20220;-89
2021/08/31 00:57:02;;;;;;;12.27;11.27;;;17.10;95.40;;;;;;4993720;28;20288;-88
2021/08/31 00:59:28;;;;;;;12.80;11.57;;;17.10;95.00;;;;;;4986852;28;20679;-89
2021/08/31 01:01:54;;;;;;;12.45;11.25;;;17.00;95.40;;;;;;4994970;28;20206;-89
2021/08/31 01:04:24;;;;;;;12.82;11.60;;;17.00;95.30;;;;;;4991860;28;20215;-88
2021/08/31 01:06:52;;;;;;;14.23;13.02;;;17.00;95.10;;;;;;4992265;28;20343;-89
2021/08/31 01:09:18;;;;;;;12.50;11.40;;;17.00;94.90;;;;;;5003241;28;20181;-88
2021/08/31 01:11:45;;;;;;;14.13;12.88;;;17.00;94.90;;;;;;4999650;28;20522;-89
2021/08/31 01:14:11;;;;;;;13.85;12.45;;;17.00;95.00;;;;;;5000071;28;20214;-89
2021/08/31 01:16:37;;;;;;;13.77;12.48;;;17.10;94.80;;;;;;5017311;28;20690;-89
2021/08/31 01:19:03;;;;;;;11.40;10.50;;;17.10;95.00;;;;;;5003079;28;20181;-89
2021/08/31 01:21:29;;;;;;;11.77;10.77;;;16.90;95.50;;;;;;5004495;28;20282;-92
2021/08/31 01:23:55;;;;;;;12.30;11.23;;;16.90;95.70;;;;;;5002483;28;20218;-89
2021/08/31 01:26:21;;;;;;;13.85;12.55;;;16.90;95.50;;;;;;4999476;28;20252;-88
2021/08/31 01:28:47;;;;;;;12.23;11.02;;;16.90;95.50;;;;;;5000521;28;20218;-89
2021/08/31 01:31:13;;;;;;;12.02;10.80;;;16.90;95.90;;;;;;5012454;28;20213;-90
2021/08/31 01:33:39;;;;;;;12.45;11.13;;;16.90;95.10;;;;;;4999317;28;20198;-92
2021/08/31 01:36:14;;;;;;;12.32;10.68;;;16.90;94.80;;;;;;5003266;28;20676;-89
2021/08/31 01:38:40;;;;;;;12.45;11.18;;;16.90;94.90;;;;;;4999803;28;20174;-88
2021/08/31 01:41:05;;;;;;;11.45;10.45;;;16.80;95.20;;;;;;5001092;28;20201;-88
2021/08/31 01:43:31;;;;;;;12.48;11.38;;;16.80;95.40;;;;;;5001631;28;20237;-89
2021/08/31 01:45:58;;;;;;;12.52;11.35;;;16.90;95.30;;;;;;4996517;28;20535;-89
2021/08/31 01:48:23;;;;;;;11.60;10.60;;;16.80;94.90;;;;;;5000784;28;20181;-89
2021/08/31 01:50:49;;;;;;;11.57;10.52;;;16.90;95.00;;;;;;4984100;28;20673;-89
2021/08/31 01:53:15;;;;;;;11.32;10.43;;;16.90;94.90;;;;;;4998466;28;20198;-88
2021/08/31 01:55:41;;;;;;;12.27;11.15;;;16.90;95.00;;;;;;5000123;28;20300;-90
2021/08/31 01:58:07;;;;;;;12.27;11.07;;;16.90;94.30;;;;;;5002286;28;20255;-90
2021/08/31 02:00:32;;;;;;;11.50;10.50;;;16.80;94.70;;;;;;5011018;28;20201;-89
2021/08/31 02:02:58;;;;;;;11.90;10.90;;;16.80;94.90;;;;;;4999855;28;20192;-89
2021/08/31 02:05:25;;;;;;;11.63;10.52;;;16.80;95.00;;;;;;5001670;28;20228;-89
2021/08/31 02:07:51;;;;;;;11.88;10.88;;;16.80;94.70;;;;;;5000774;28;20693;-89
2021/08/31 02:10:16;;;;;;;10.20;9.40;;;16.70;95.30;;;;;;4998120;28;20195;-90
2021/08/31 02:12:42;;;;;;;12.10;11.10;;;16.70;95.40;;;;;;5000081;28;20196;-89
2021/08/31 02:15:09;;;;;;;11.25;10.15;;;16.70;95.20;;;;;;5000598;28;20225;-89
2021/08/31 02:17:34;;;;;;;11.35;10.45;;;16.70;95.30;;;;;;4998301;28;20308;-89
2021/08/31 02:20:00;;;;;;;10.80;9.73;;;16.80;94.80;;;;;;5001372;28;20190;-88
2021/08/31 02:22:26;;;;;;;10.43;9.48;;;16.80;94.80;;;;;;5000863;28;20287;-89
2021/08/31 02:24:51;;;;;;;11.38;10.20;;;16.80;94.50;;;;;;4998262;28;20217;-89
2021/08/31 02:27:17;;;;;;;9.55;8.75;;;16.80;94.30;;;;;;4998684;28;20200;-88
2021/08/31 02:29:43;;;;;;;10.45;9.43;;;16.80;94.00;;;;;;4985034;28;20197;-88
2021/08/31 02:32:09;;;;;;;10.95;9.85;;;16.80;93.60;;;;;;4987667;28;20193;-89
2021/08/31 02:34:34;;;;;;;11.63;10.60;;;16.80;93.50;;;;;;4990909;28;20651;-89
2021/08/31 02:37:00;;;;;;;10.57;9.63;;;16.80;93.40;;;;;;4992667;28;20185;-90
2021/08/31 02:39:26;;;;;;;10.50;9.60;;;16.80;93.30;;;;;;5001836;28;20186;-89
2021/08/31 02:41:52;;;;;;;11.05;10.05;;;16.70;93.70;;;;;;4999945;28;20475;-90
2021/08/31 02:44:18;;;;;;;10.63;9.70;;;16.70;94.00;;;;;;5000270;28;20221;-89
2021/08/31 02:46:44;;;;;;;12.18;11.05;;;16.70;93.70;;;;;;5000523;28;20254;-88
2021/08/31 02:49:09;;;;;;;12.95;11.63;;;16.80;93.50;;;;;;4995198;28;20203;-89
2021/08/31 02:51:35;;;;;;;12.25;11.15;;;16.70;93.80;;;;;;4996090;28;20655;-90
2021/08/31 02:54:01;;;;;;;14.05;11.18;;;16.70;94.00;;;;;;4984045;28;20384;-90
2021/08/31 02:56:26;;;;;;;9.98;9.18;;;16.70;94.20;;;;;;4999623;28;20288;-89
2021/08/31 02:58:52;;;;;;;9.57;8.63;;;16.70;94.00;;;;;;4998002;28;20251;-90
2021/08/31 03:03:56;;;;;;;10.50;9.60;;;16.70;94.30;;;;;;5000700;28;20718;-89
2021/08/31 03:06:26;;;;;;;10.80;9.77;;;16.60;94.20;;;;;;4994971;28;20582;-89
2021/08/31 03:08:52;;;;;;;10.00;9.00;;;16.60;94.10;;;;;;5001241;28;20269;-89
2021/08/31 03:11:18;;;;;;;10.60;9.52;;;16.60;93.90;;;;;;5002194;28;20239;-89
2021/08/31 03:13:43;;;;;;;10.13;9.13;;;16.60;93.60;;;;;;4995642;28;20209;-91
2021/08/31 03:16:09;;;;;;;11.10;10.10;;;16.50;93.40;;;;;;5010676;28;20292;-90
2021/08/31 03:18:35;;;;;;;11.20;10.10;;;16.50;93.10;;;;;;5016780;28;20192;-89
2021/08/31 03:21:01;;;;;;;9.75;8.85;;;16.50;93.20;;;;;;5005924;28;20196;-89
2021/08/31 03:23:27;;;;;;;10.27;9.37;;;16.40;93.50;;;;;;4996814;28;20225;-89
2021/08/31 03:25:52;;;;;;;9.70;8.70;;;16.40;93.60;;;;;;5004153;28;20180;-89
2021/08/31 03:28:18;;;;;;;10.17;9.23;;;16.50;93.60;;;;;;5001103;28;20193;-91
2021/08/31 03:30:44;;;;;;;9.65;8.75;;;16.50;93.20;;;;;;5000981;28;20219;-89
2021/08/31 03:33:10;;;;;;;9.63;8.68;;;16.50;93.30;;;;;;5002875;28;20188;-89
2021/08/31 03:35:36;;;;;;;10.18;9.25;;;16.60;92.80;;;;;;4986113;28;20225;-89
2021/08/31 03:38:02;;;;;;;10.70;9.75;;;16.60;92.70;;;;;;5001978;28;20200;-88
2021/08/31 03:40:28;;;;;;;9.88;9.07;;;16.60;92.70;;;;;;5002744;28;20207;-89
2021/08/31 03:42:54;;;;;;;9.55;8.75;;;16.50;93.00;;;;;;5004987;28;20197;-89
2021/08/31 03:45:19;;;;;;;10.07;8.93;;;16.50;93.00;;;;;;5003661;28;20414;-89
2021/08/31 03:47:45;;;;;;;9.80;8.87;;;16.60;92.90;;;;;;5000577;28;20213;-89
2021/08/31 03:50:11;;;;;;;9.83;8.93;;;16.50;92.90;;;;;;5003956;28;20208;-89
2021/08/31 03:52:37;;;;;;;9.02;8.23;;;16.50;93.10;;;;;;5005128;28;20197;-88
2021/08/31 03:55:04;;;;;;;11.43;8.80;;;16.60;92.70;;;;;;5000595;28;20212;-89
2021/08/31 03:57:29;;;;;;;9.73;8.83;;;16.50;93.40;;;;;;4994828;28;20188;-89
2021/08/31 03:59:55;;;;;;;10.07;9.07;;;16.40;93.50;;;;;;4989391;28;20207;-88
2021/08/31 04:02:22;;;;;;;10.25;9.30;;;16.30;94.10;;;;;;5002977;28;20193;-89
2021/08/31 04:04:48;;;;;;;9.50;8.60;;;16.30;94.30;;;;;;4988199;28;20216;-89
2021/08/31 04:07:14;;;;;;;9.10;8.30;;;16.30;94.00;;;;;;4988300;28;20289;-88
2021/08/31 04:09:40;;;;;;;9.23;8.33;;;16.30;93.90;;;;;;5012662;28;20196;-89
2021/08/31 04:12:06;;;;;;;9.98;9.10;;;16.40;93.20;;;;;;4997420;28;20201;-89
2021/08/31 04:14:32;;;;;;;10.40;9.50;;;16.40;93.20;;;;;;5003354;28;20219;-90
2021/08/31 04:16:58;;;;;;;10.77;9.70;;;16.40;92.60;;;;;;5030848;28;20192;-88
2021/08/31 04:19:24;;;;;;;10.27;9.38;;;16.40;92.90;;;;;;5003853;28;20200;-89
2021/08/31 04:21:50;;;;;;;9.73;8.83;;;16.40;93.00;;;;;;5008292;28;20196;-89
2021/08/31 04:24:15;;;;;;;10.03;8.97;;;16.40;92.90;;;;;;5002043;28;20220;-91
2021/08/31 04:26:41;;;;;;;10.20;9.30;;;16.40;92.80;;;;;;5015866;28;20207;-91
2021/08/31 04:29:07;;;;;;;9.90;9.00;;;16.30;92.60;;;;;;5005788;28;20251;-89
2021/08/31 04:31:33;;;;;;;10.23;9.33;;;16.30;92.60;;;;;;5007163;28;20554;-90
2021/08/31 04:33:59;;;;;;;9.70;8.80;;;16.30;92.40;;;;;;5003507;28;20812;-89
2021/08/31 04:36:24;;;;;;;9.82;9.02;;;16.30;92.30;;;;;;5002857;28;20196;-89
2021/08/31 04:38:50;;;;;;;9.85;8.85;;;16.30;92.30;;;;;;4994981;28;20570;-88
2021/08/31 04:41:16;;;;;;;8.70;8.00;;;16.30;92.10;;;;;;5004477;28;20210;-89
2021/08/31 04:43:41;;;;;;;9.90;9.00;;;16.30;92.20;;;;;;5001630;28;20305;-89
2021/08/31 04:46:09;;;;;;;9.90;9.00;;;16.30;92.10;;;;;;5005604;28;20271;-90
2021/08/31 04:48:36;;;;;;;10.40;9.50;;;16.20;92.00;;;;;;5001896;28;20176;-90
2021/08/31 04:51:01;;;;;;;12.27;9.83;;;16.10;92.70;;;;;;5000252;28;20196;-90
2021/08/31 04:53:27;;;;;;;10.43;9.53;;;16.10;92.50;;;;;;5020008;28;20220;-89
2021/08/31 04:55:53;;;;;;;11.10;10.00;;;16.10;92.30;;;;;;5003119;28;20213;-90
2021/08/31 04:58:19;;;;;;;10.33;9.33;;;16.00;92.10;;;;;;4993872;28;20196;-90
2021/08/31 05:00:44;;;;;;;11.30;9.20;;;15.90;92.70;;;;;;5001132;28;20198;-90
2021/08/31 05:03:10;;;;;;;10.63;9.53;;;16.00;92.60;;;;;;5002210;28;20646;-89
2021/08/31 05:05:36;;;;;;;10.37;9.37;;;16.00;92.50;;;;;;4992712;28;20792;-90
2021/08/31 05:08:02;;;;;;;9.43;8.63;;;16.00;92.30;;;;;;4993533;28;20674;-89
2021/08/31 05:10:28;;;;;;;8.77;8.00;;;16.00;92.20;;;;;;4988252;28;20261;-89
2021/08/31 05:12:53;;;;;;;10.77;9.77;;;16.00;91.80;;;;;;5001870;28;20201;-90
2021/08/31 05:15:19;;;;;;;10.27;9.43;;;16.00;91.10;;;;;;5004024;28;20207;-89
2021/08/31 05:17:45;;;;;;;8.93;8.20;;;16.00;91.10;;;;;;4995166;28;20253;-89
2021/08/31 05:20:11;;;;;;;9.53;8.60;;;16.00;91.20;;;;;;5006425;28;20186;-89
2021/08/31 05:22:36;;;;;;;8.60;7.80;;;16.00;91.60;;;;;;5004999;28;20280;-90
2021/08/31 05:25:03;;;;;;;9.60;8.80;;;16.00;91.20;;;;;;5005629;28;20662;-89
2021/08/31 05:27:30;;;;;;;9.93;9.03;;;15.90;91.40;;;;;;5005733;28;20193;-90
2021/08/31 05:29:56;;;;;;;9.50;8.70;;;15.80;91.90;;;;;;4987870;28;20295;-90
2021/08/31 05:32:22;;;;;;;10.57;9.47;;;15.90;92.00;;;;;;4999057;28;20194;-89
2021/08/31 05:34:48;;;;;;;10.20;9.30;;;15.80;91.50;;;;;;4993147;28;20672;-90
2021/08/31 05:37:14;;;;;;;10.10;9.17;;;15.80;91.90;;;;;;5010222;28;20212;-90
2021/08/31 05:39:40;;;;;;;9.90;8.97;;;15.90;92.00;;;;;;5004123;28;20190;-90
2021/08/31 05:42:07;;;;;;;10.13;9.13;;;15.80;91.80;;;;;;5005659;28;20212;-89
2021/08/31 05:44:35;;;;;;;10.37;9.47;;;15.80;92.00;;;;;;5003389;28;20218;-89
2021/08/31 05:47:03;;;;;;;11.13;10.03;;;15.80;91.90;;;;;;4988345;28;20245;-89
2021/08/31 05:49:30;;;;;;;10.80;9.73;;;15.70;92.30;;;;;;4996179;28;20421;-89
2021/08/31 05:51:56;;;;;;;10.70;9.60;;;15.70;92.80;;;;;;5019493;28;20206;-89
2021/08/31 05:54:24;;;;;;;9.37;8.57;;;15.80;92.70;;;;;;5020212;28;20228;-88
2021/08/31 05:56:50;;;;;;;10.33;9.17;;;15.80;93.00;;;;;;5002102;28;20688;-88
2021/08/31 05:59:15;;;;;;;11.30;9.60;;;15.80;92.80;;;;;;5000243;28;20208;-89
2021/08/31 06:01:44;;;;;;;10.73;9.57;;;15.80;92.80;;;;;;5002730;28;20347;-89
2021/08/31 06:04:10;;;;;;;11.10;10.00;;;15.80;92.90;;;;;;4998825;28;20234;-89
2021/08/31 06:06:36;;;;;;;11.00;10.07;;;15.90;92.50;;;;;;4990903;28;20186;-89
2021/08/31 06:09:01;;;;;;;12.23;11.07;;;15.80;92.80;;;;;;5002207;28;20213;-88
2021/08/31 06:11:29;;;;;;;11.70;10.57;;;15.90;93.50;;;;;;5001335;28;20186;-88
2021/08/31 06:13:55;;;;;;;11.90;10.80;;;15.90;92.80;;;;;;5000713;28;20228;-89
2021/08/31 06:16:21;;;;;;;11.97;10.70;;;15.90;92.60;;;;;;5004155;28;20221;-88
2021/08/31 06:18:47;;;;;;;12.23;10.43;;;15.90;92.30;;;;;;4982936;28;20185;-89
2021/08/31 06:21:13;;;;;;;12.27;11.00;;;15.90;92.40;;;;;;4999333;28;20668;-90
2021/08/31 06:23:38;;;;;;;14.43;10.40;;;15.80;93.10;;;;;;5001871;28;20272;-89
2021/08/31 06:26:04;;;;;;;11.87;10.63;;;15.80;92.60;;;;;;4998595;28;20195;-89
2021/08/31 06:28:30;;;;;;;11.50;10.47;;;15.80;92.00;;;;;;4993045;28;20200;-89
2021/08/31 06:30:56;;;;;;;10.63;9.57;;;15.80;93.00;;;;;;4987845;28;20195;-88
2021/08/31 06:33:21;;;;;;;10.77;9.77;;;15.80;92.60;;;;;;4980108;28;20265;-89
2021/08/31 06:35:47;;;;;;;11.27;10.27;;;15.80;92.60;;;;;;4998612;28;20628;-89
2021/08/31 06:38:13;;;;;;;11.60;10.40;;;15.80;92.80;;;;;;5003243;28;20607;-89
2021/08/31 06:40:39;;;;;;;10.83;9.90;;;15.90;92.30;;;;;;5003653;28;20209;-88
2021/08/31 06:43:04;;;;;;;11.60;10.43;;;16.00;92.40;;;;;;4999028;28;20197;-89
2021/08/31 06:45:30;;;;;;;11.00;9.90;;;16.00;91.90;;;;;;4996032;28;20250;-89
2021/08/31 06:47:56;;;;;;;10.73;9.73;;;16.10;91.50;;;;;;5017233;28;20200;-89
2021/08/31 06:50:21;;;;;;;10.97;9.97;;;16.20;92.00;;;;;;4986813;28;20275;-89
2021/08/31 06:52:48;;;;;;;10.60;9.43;;;16.30;90.80;;;;;;4997306;28;20194;-88
2021/08/31 06:55:14;;;;;;;11.40;10.00;;;16.40;90.80;;;;;;5002430;28;20235;-89
2021/08/31 06:57:40;;;;;;;11.83;10.27;;;16.60;90.90;;;;;;4991428;28;20277;-89
2021/08/31 07:00:08;;;;;;;11.50;10.50;;;16.70;89.40;;;;;;4999768;28;20197;-88
2021/08/31 07:02:34;;;;;;;10.60;9.70;;;16.80;89.60;;;;;;5008209;28;20196;-89
2021/08/31 07:05:00;;;;;;;11.43;10.33;;;16.90;90.70;;;;;;4995000;28;20221;-89
2021/08/31 07:07:26;;;;;;;11.37;10.37;;;17.00;88.40;;;;;;4989249;28;20187;-89
2021/08/31 07:09:53;;;;;;;10.07;9.17;;;17.10;87.40;;;;;;5000591;28;20202;-88
2021/08/31 07:12:18;;;;;;;10.60;9.70;;;17.10;87.00;;;;;;5000697;28;20735;-89
2021/08/31 07:14:44;;;;;;;10.90;10.00;;;17.00;87.40;;;;;;5002866;28;20218;-89
2021/08/31 07:17:10;;;;;;;10.63;9.67;;;17.10;86.50;;;;;;4993757;28;20206;-89
2021/08/31 07:19:35;;;;;;;11.90;10.73;;;17.00;86.70;;;;;;5005322;28;20213;-89
2021/08/31 07:22:01;;;;;;;10.80;9.90;;;17.10;86.80;;;;;;5006969;28;20202;-89
2021/08/31 07:24:28;;;;;;;10.77;9.70;;;17.10;86.40;;;;;;5028981;28;20309;-90
2021/08/31 07:26:54;;;;;;;11.30;10.03;;;17.10;86.30;;;;;;5014687;28;20178;-89
2021/08/31 07:29:20;;;;;;;11.40;10.20;;;17.10;88.90;;;;;;5006650;28;20189;-89
2021/08/31 07:31:46;;;;;;;9.90;8.90;;;17.20;87.10;;;;;;5002977;28;20213;-90
2021/08/31 07:34:12;;;;;;;11.10;9.87;;;17.10;87.20;;;;;;4981550;28;20222;-89
2021/08/31 07:36:37;;;;;;;12.17;10.23;;;17.20;86.50;;;;;;5006117;28;20193;-89
2021/08/31 07:39:03;;;;;;;11.57;10.00;;;17.00;88.70;;;;;;4985980;28;20865;-89
2021/08/31 07:41:29;;;;;;;10.60;9.53;;;17.10;88.10;;;;;;5000898;28;20210;-89
2021/08/31 07:43:55;;;;;;;10.13;9.23;;;17.30;86.40;;;;;;4984690;28;20211;-89
2021/08/31 07:46:21;;;;;;;10.50;9.60;;;17.40;85.30;;;;;;4995737;28;20581;-89
2021/08/31 07:48:47;;;;;;;9.90;9.00;;;17.30;85.30;;;;;;4999402;28;20194;-89
2021/08/31 07:51:13;;;;;;;10.57;9.57;;;17.30;84.90;;;;;;4997960;28;20197;-89
2021/08/31 07:53:40;;;;;;;11.23;10.13;;;17.30;85.00;;;;;;4984986;28;20293;-89
2021/08/31 07:56:06;;;;;;;12.13;10.00;;;17.20;84.70;;;;;;4994832;28;20213;-89
2021/08/31 07:58:33;;;;;;;11.47;10.40;;;17.30;86.80;;;;;;5010451;28;20190;-89
2021/08/31 08:01:00;;;;;;;9.13;8.23;;;17.40;86.90;;;;;;5002593;28;20196;-89
2021/08/31 08:03:26;;;;;;;10.70;9.70;;;17.80;85.30;;;;;;4997340;28;20199;-89
2021/08/31 08:05:52;;;;;;;10.83;9.93;;;17.90;83.90;;;;;;4993180;28;20195;-89
2021/08/31 08:08:17;;;;;;;10.17;9.30;;;18.10;84.00;;;;;;4997733;28;20227;-90
2021/08/31 08:10:43;;;;;;;15.97;9.93;;;18.10;82.30;;;;;;4990236;28;20205;-89
2021/08/31 08:13:09;;;;;;;10.40;9.47;;;18.10;82.40;;;;;;5001216;28;20204;-89
2021/08/31 08:15:34;;;;;;;12.33;11.03;;;18.00;83.00;;;;;;4995122;28;20254;-90
2021/08/31 08:18:00;;;;;;;11.00;9.87;;;18.00;83.00;;;;;;4996502;28;20593;-90
2021/08/31 08:20:27;;;;;;;11.02;9.88;;;17.90;83.20;;;;;;4988919;28;20197;-89
2021/08/31 08:22:52;;;;;;;11.95;10.85;;;18.00;83.90;;;;;;4989277;28;20189;-90
2021/08/31 08:25:18;;;;;;;11.20;10.27;;;18.20;82.40;;;;;;4993643;28;20283;-90
2021/08/31 08:27:44;;;;;;;11.60;10.43;;;18.30;81.70;;;;;;4997948;28;20738;-90
2021/08/31 08:30:11;;;;;;;11.65;10.13;;;18.20;81.70;;;;;;4992481;28;20213;-90
2021/08/31 08:32:38;;;;;;;10.93;9.93;;;18.30;81.70;;;;;;4989424;28;20204;-90
2021/08/31 08:35:05;;;;;;;10.43;9.43;;;18.10;81.90;;;;;;4997980;28;20231;-89
2021/08/31 08:37:31;;;;;;;10.88;9.40;;;18.10;83.10;;;;;;4997643;28;20193;-90
2021/08/31 08:39:57;;;;;;;10.48;9.55;;;18.00;83.00;;;;;;4993809;28;20264;-90
2021/08/31 08:42:22;;;;;;;9.63;8.77;;;18.00;82.60;;;;;;4992611;28;20192;-89
2021/08/31 08:44:48;;;;;;;10.30;9.43;;;18.10;83.60;;;;;;4992594;28;20213;-89
2021/08/31 08:47:14;;;;;;;10.40;9.45;;;18.10;82.70;;;;;;4995454;28;20249;-89
2021/08/31 08:49:43;;;;;;;9.07;8.23;;;18.00;83.40;;;;;;4992358;28;20189;-89
2021/08/31 08:52:09;;;;;;;9.90;9.00;;;18.00;83.90;;;;;;5002199;28;20199;-90
2021/08/31 08:54:35;;;;;;;9.55;8.65;;;18.00;84.20;;;;;;5004032;28;20503;-89
2021/08/31 08:57:00;;;;;;;9.43;8.43;;;18.00;82.10;;;;;;5000590;28;20261;-90
2021/08/31 08:59:26;;;;;;;9.50;8.57;;;18.00;81.70;;;;;;4998545;28;20196;-89
2021/08/31 09:01:54;;;;;;;9.33;8.30;;;18.10;81.60;;;;;;4992578;28;20211;-89
2021/08/31 09:04:44;;;;;;;9.87;8.97;;;18.10;80.90;;;;;;4988050;28;20217;-87
2021/08/31 09:07:19;;;;;;;9.53;8.57;;;18.30;80.40;;;;;;5003742;28;20192;-88
2021/08/31 09:09:47;;;;;;;13.70;8.90;;;18.50;79.80;;;;;;4995711;28;20194;-89
2021/08/31 09:12:34;;;;;;;9.83;9.00;;;18.50;79.70;;;;;;5000748;28;20200;-88
2021/08/31 09:15:23;;;;;;;9.45;8.55;;;18.70;79.10;;;;;;4994907;28;20219;-86
2021/08/31 09:18:06;;;;;;;10.20;9.25;;;18.90;79.20;;;;;;4998796;28;20686;-89
2021/08/31 09:20:38;;;;;;;10.27;9.27;;;19.00;77.80;;;;;;5006146;28;20213;-88
2021/08/31 09:23:06;;;;;;;9.73;8.90;;;19.30;77.60;;;;;;4992109;28;20217;-89
2021/08/31 09:25:43;;;;;;;9.65;8.85;;;19.40;76.80;;;;;;5003458;28;21273;-89
2021/08/31 09:28:20;;;;;;;10.60;9.55;;;19.70;76.10;;;;;;4997659;28;20205;-89
2021/08/31 09:30:54;;;;;;;10.27;9.32;;;19.80;74.70;;;;;;4993895;28;20192;-89
2021/08/31 09:33:20;;;;;;;10.27;9.18;;;19.70;74.90;;;;;;5017978;28;20196;-87
2021/08/31 09:35:58;;;;;;;9.20;8.30;;;19.60;76.00;;;;;;4999476;28;20235;-89
2021/08/31 09:38:24;;;;;;;9.93;8.73;;;19.70;76.40;;;;;;4998390;28;20215;-88
2021/08/31 09:40:53;;;;;;;9.20;8.23;;;19.50;74.60;;;;;;4998402;28;20255;-89
2021/08/31 09:43:25;;;;;;;8.82;8.00;;;19.60;76.00;;;;;;4995426;28;20240;-87
2021/08/31 09:45:54;;;;;;;9.05;8.20;;;19.50;75.50;;;;;;4999545;28;20281;-87
2021/08/31 09:48:20;;;;;;;9.52;8.63;;;19.70;74.70;;;;;;5003008;28;20204;-88
2021/08/31 09:50:49;;;;;;;8.32;7.53;;;19.70;74.40;;;;;;5007125;28;20265;-87
2021/08/31 09:53:20;;;;;;;8.57;7.75;;;19.70;74.00;;;;;;5012959;28;20194;-87
2021/08/31 09:55:48;;;;;;;8.52;7.70;;;19.70;73.60;;;;;;4993413;28;20219;-88
2021/08/31 09:58:25;;;;;;;8.85;7.95;;;19.70;74.10;;;;;;4997310;28;20185;-88
2021/08/31 10:00:53;;;;;;;8.27;7.38;;;19.80;72.80;;;;;;5011223;28;20207;-89
2021/08/31 10:03:20;;;;;;;7.43;6.80;;;19.60;73.10;;;;;;5003144;28;20193;-88
2021/08/31 10:05:48;;;;;;;8.98;8.07;;;19.70;72.40;;;;;;5000779;28;20304;-88
2021/08/31 10:08:15;;;;;;;10.85;8.30;;;19.80;72.00;;;;;;5004231;28;20231;-91
2021/08/31 10:10:43;;;;;;;9.13;8.20;;;20.10;72.20;;;;;;5003412;28;20202;-90
2021/08/31 10:13:17;;;;;;;8.95;8.10;;;20.30;70.90;;;;;;4994304;28;20198;-90
2021/08/31 10:15:47;;;;;;;9.43;8.65;;;20.00;70.40;;;;;;4995562;28;20211;-90
2021/08/31 10:18:18;;;;;;;9.65;7.75;;;19.80;71.30;;;;;;4990492;28;20199;-90
2021/08/31 10:20:52;;;;;;;8.70;7.90;;;20.00;71.60;;;;;;4993348;28;20190;-90
2021/08/31 10:23:32;;;;;;;9.05;8.20;;;20.10;71.90;;;;;;5008277;28;20202;-90
2021/08/31 10:26:29;;;;;;;7.97;7.28;;;20.40;71.40;;;;;;4991065;28;20189;-90
2021/08/31 10:29:13;;;;;;;8.65;7.18;;;20.50;69.20;;;;;;4993756;28;20187;-90
2021/08/31 10:31:41;;;;;;;8.55;7.45;;;20.60;68.50;;;;;;4996707;28;20191;-90
2021/08/31 10:34:32;;;;;;;8.32;7.50;;;20.50;68.50;;;;;;4998757;28;20316;-90
2021/08/31 10:37:05;;;;;;;8.20;7.38;;;20.50;69.50;;;;;;5014954;28;20221;-90
2021/08/31 10:39:43;;;;;;;7.80;7.15;;;20.60;69.00;;;;;;4995482;28;20558;-90
2021/08/31 10:42:10;;;;;;;8.75;7.95;;;20.80;69.00;;;;;;5012779;28;20200;-90
2021/08/31 10:44:43;;;;;;;8.20;7.38;;;21.00;69.60;;;;;;5000239;28;20216;-89
2021/08/31 10:47:17;;;;;;;9.23;8.40;;;21.00;68.00;;;;;;5002480;28;20177;-88
2021/08/31 10:49:55;;;;;;;9.48;7.90;;;20.90;66.50;;;;;;4999862;28;20251;-88
2021/08/31 10:52:32;;;;;;;7.95;7.10;;;20.80;67.20;;;;;;4998732;28;20566;-89
2021/08/31 10:54:57;;;;;;;7.95;7.15;;;20.80;67.70;;;;;;4991489;28;20581;-89
2021/08/31 10:57:35;;;;;;;8.25;7.53;;;21.00;67.50;;;;;;4992993;28;20194;-89
2021/08/31 11:00:24;;;;;;;8.25;7.28;;;21.00;66.60;;;;;;4994704;28;20264;-88
2021/08/31 11:02:57;;;;;;;8.63;7.82;;;20.90;67.50;;;;;;5000291;28;20326;-89
2021/08/31 11:05:24;;;;;;;7.85;7.18;;;21.10;65.50;;;;;;4999100;28;20239;-89
2021/08/31 11:08:12;;;;;;;7.70;7.00;;;21.10;66.70;;;;;;4984552;28;20185;-89
2021/08/31 11:10:42;;;;;;;7.75;6.97;;;21.10;66.00;;;;;;5003724;28;20212;-89
2021/08/31 11:13:12;;;;;;;8.35;7.05;;;21.20;66.80;;;;;;5009075;28;20719;-89
2021/08/31 11:15:39;;;;;;;8.30;7.47;;;21.10;66.40;;;;;;4994501;28;20212;-89
2021/08/31 11:18:10;;;;;;;10.98;8.40;;;21.00;67.80;;;;;;5025892;28;20189;-89
2021/08/31 11:20:38;;;;;;;8.05;7.35;;;21.20;66.90;;;;;;5019412;28;20221;-89
2021/08/31 11:23:23;;;;;;;8.70;7.75;;;21.40;67.00;;;;;;4998122;28;20204;-88
2021/08/31 11:25:49;;;;;;;8.38;7.68;;;21.70;65.40;;;;;;4986435;28;20283;-89
2021/08/31 11:28:21;;;;;;;8.82;8.02;;;22.00;64.90;;;;;;4993153;28;20217;-89
2021/08/31 11:31:00;;;;;;;8.30;7.60;;;22.20;63.20;;;;;;5002137;28;20237;-90
2021/08/31 11:33:30;;;;;;;8.20;7.53;;;22.50;62.00;;;;;;5000286;28;20293;-89
2021/08/31 11:36:05;;;;;;;7.95;7.28;;;22.60;61.80;;;;;;5004078;28;20217;-89
2021/08/31 11:38:32;;;;;;;8.90;8.13;;;22.30;64.20;;;;;;5001783;28;20190;-89
2021/08/31 11:41:50;;;;;;;9.00;8.10;;;22.20;65.10;;;;;;5001815;28;20190;-89
2021/08/31 11:44:21;;;;;;;8.45;7.75;;;22.10;64.10;;;;;;4957749;28;20304;-89
2021/08/31 11:46:54;;;;;;;8.30;7.57;;;22.40;62.30;;;;;;4991691;28;20240;-89
2021/08/31 11:49:29;;;;;;;8.25;7.55;;;22.30;62.80;;;;;;4998574;28;20257;-90
2021/08/31 11:51:55;;;;;;;8.20;7.35;;;22.40;63.20;;;;;;5000255;28;20249;-90
2021/08/31 11:54:22;;;;;;;8.63;7.78;;;22.20;63.00;;;;;;5005139;28;20217;-90
2021/08/31 11:56:56;;;;;;;7.40;6.57;;;22.10;64.30;;;;;;4997082;28;20197;-90
2021/08/31 11:59:43;;;;;;;8.50;7.70;;;21.70;63.40;;;;;;5007394;28;20198;-90
2021/08/31 12:02:20;;;;;;;7.47;6.35;;;21.40;65.60;;;;;;4998149;28;20724;-90
2021/08/31 12:04:56;;;;;;;7.68;6.95;;;21.30;67.30;;;;;;5016892;28;20220;-90
2021/08/31 12:07:43;;;;;;;8.75;7.80;;;21.40;66.10;;;;;;4997657;28;20189;-90
2021/08/31 12:10:18;;;;;;;8.55;7.72;;;21.60;65.40;;;;;;4998574;28;20205;-90
2021/08/31 12:12:45;;;;;;;7.63;6.93;;;22.30;63.80;;;;;;4998431;28;20564;-90
2021/08/31 12:15:12;;;;;;;7.25;6.65;;;22.70;61.40;;;;;;4995524;28;20210;-88
2021/08/31 12:17:45;;;;;;;7.50;6.78;;;22.80;60.70;;;;;;5011471;28;20186;-90
2021/08/31 12:20:24;;;;;;;7.18;6.47;;;22.80;60.70;;;;;;5004297;28;20210;-90
2021/08/31 12:22:54;;;;;;;7.45;6.85;;;23.20;57.20;;;;;;4999559;28;20633;-89
2021/08/31 12:25:20;;;;;;;7.32;6.63;;;23.60;56.20;;;;;;4996748;28;20210;-90
2021/08/31 12:27:50;;;;;;;6.95;6.35;;;24.20;54.70;;;;;;5019142;28;20204;-90
2021/08/31 12:30:18;;;;;;;7.07;6.50;;;24.50;52.70;;;;;;4994466;28;20622;-90
2021/08/31 12:32:54;;;;;;;7.22;6.57;;;24.50;52.50;;;;;;4996230;28;20190;-90
2021/08/31 12:35:24;;;;;;;6.97;6.40;;;25.10;51.50;;;;;;5002851;28;20581;-88
2021/08/31 12:38:12;;;;;;;7.20;6.55;;;25.20;50.90;;;;;;4993764;28;20654;-88
2021/08/31 12:44:02;;;;;;;7.45;6.85;;;25.00;49.50;;;;;;4998246;28;20213;-88
2021/08/31 12:46:30;;;;;;;7.00;6.40;;;24.90;50.50;;;;;;4992260;28;20194;-88
2021/08/31 12:49:04;;;;;;;6.10;5.55;;;25.10;48.80;;;;;;5003927;28;20184;-88